• Join FlightAware (Why Join?)
  • Login
  • US Flag 
11:27AM EDT


 

Airport Tracker/Info


-or-


 

Live Flight TrackerFlight Track Log ✈ FIN666 ✈ 01-Nov-2013 ✈ EKCH / CPH - EFHK / HEL

Flight Track Log - Related Links

Times and Time Zones

All times are in EDT time to prevent confusion due to time zone crossing. See the FIN666 flight status page for this flight to view local times or setup timezone preferences in your user account.

Time Position Orientation Groundspeed Altitude Reporting Facility
EDT Latitude Longitude Course Direction KTS MPH feet Rate Location/Type
08:21AM 55.8556 13.1474 49° Northeast  Level Estimated
08:22AM 55.9343 13.3125 50° Northeast  Level Estimated
08:23AM 56.0129 13.4784 50° Northeast  Level Estimated
08:24AM 56.0912 13.6449 50° Northeast  Level Estimated
08:25AM 56.1718 13.8173 50° Northeast  Level Estimated
08:26AM 56.2521 13.9904 50° Northeast  Level Estimated
08:27AM 56.3322 14.1643 50° Northeast  Level Estimated
08:28AM 56.4120 14.3388 50° Northeast  Level Estimated
08:29AM 56.4916 14.5142 51° Northeast  Level Estimated
08:30AM 56.5709 14.6902 51° Northeast  Level Estimated
08:31AM 56.6499 14.8670 51° Northeast  Level Estimated
08:32AM 56.7288 15.0445 51° Northeast  Level Estimated
08:33AM 56.8073 15.2228 51° Northeast  Level Estimated
08:34AM 56.8856 15.4018 51° Northeast  Level Estimated
08:35AM 56.9637 15.5816 51° Northeast  Level Estimated
08:36AM 57.0415 15.7621 52° Northeast  Level Estimated
08:37AM 57.1190 15.9434 52° Northeast  Level Estimated
08:38AM 57.1963 16.1255 52° Northeast  Level Estimated
08:39AM 57.2733 16.3083 52° Northeast  Level Estimated
08:40AM 57.3501 16.4919 52° Northeast  Level Estimated
08:41AM 57.4266 16.6762 52° Northeast  Level Estimated
08:42AM 57.5028 16.8613 52° Northeast  Level Estimated
08:43AM 57.5787 17.0472 53° Northeast  Level Estimated
08:44AM 57.6544 17.2339 53° Northeast  Level Estimated
08:45AM 57.7297 17.4213 53° Northeast  Level Estimated
08:46AM 57.8048 17.6095 53° Northeast  Level Estimated
08:47AM 57.8797 17.7985 53° Northeast  Level Estimated
08:48AM 57.9542 17.9883 53° Northeast  Level Estimated
08:49AM 58.0285 18.1789 54° Northeast  Level Estimated
08:50AM 58.1024 18.3703 54° Northeast  Level Estimated
08:51AM 58.1761 18.5625 54° Northeast  Level Estimated
08:52AM 58.2495 18.7554 54° Northeast  Level Estimated
08:53AM 58.3226 18.9492 54° Northeast  Level Estimated
08:54AM 58.3954 19.1437 54° Northeast  Level Estimated
08:55AM 58.4679 19.3391 55° Northeast  Level Estimated
08:56AM 58.5402 19.5353 55° Northeast  Level Estimated
08:57AM 58.6121 19.7323 55° Northeast  Level Estimated
08:58AM 58.6837 19.9300 55° Northeast  Level Estimated
08:59AM 58.7550 20.1287 55° Northeast  Level Estimated
09:00AM 58.8260 20.3281 55° Northeast  Level Estimated
09:01AM 58.8967 20.5283 56° Northeast  Level Estimated
09:02AM 58.9671 20.7294 56° Northeast  Level Estimated
09:03AM 59.0372 20.9312 56° Northeast  Level Estimated
09:04AM 59.1069 21.1339 56° Northeast  Level Estimated
09:05AM 59.1763 21.3375 56° Northeast  Level Estimated
09:06AM 59.2455 21.5418 56° Northeast  Level Estimated
09:07AM 59.3143 21.7470 57° Northeast  Level Estimated
09:08AM 59.3827 21.9530 57° Northeast  Level Estimated
09:09AM 59.4509 22.1598 57° Northeast  Level Estimated
09:10AM 59.5187 22.3675 57° Northeast  Level Estimated
09:11AM 59.5862 22.5760 57° Northeast  Level Estimated
09:12AM 59.6533 22.7854 58° Northeast  Level Estimated
09:13AM 59.7202 22.9956 58° Northeast  Level Estimated
09:14AM 59.7866 23.2066 58° Northeast  Level Estimated
09:15AM 59.8528 23.4184 58° Northeast  Level Estimated
09:16AM 59.9186 23.6311 58° Northeast  Level Estimated
09:17AM 59.9840 23.8447 58° Northeast  Level Estimated
09:18AM 60.0491 24.0591 59° Northeast  Level Estimated
09:19AM 60.1139 24.2743 59° Northeast  Level Estimated
09:20AM 60.1783 24.4904 59° Northeast  Level Estimated
09:21AM 60.2424 24.7073 59° Northeast  Level Estimated
09:22AM 60.3061 24.9251 59° Northeast  Level Estimated
09:23AM 60.3172 24.9633 60° Northeast  Level Estimated
09:24AM 60.3172 24.9633 37° Northeast  Level Estimated
09:25AM 60.3172 24.9633 37° Northeast  Level Estimated
09:26AM 60.3172 24.9633 37° Northeast  Level Estimated
09:27AM 60.3172 24.9633 37° Northeast  Level Estimated
09:28AM 60.3172 24.9633 37° Northeast  Level Estimated
09:29AM 60.3172 24.9633 37° Northeast  Level Estimated
09:30AM 60.3172 24.9633 37° Northeast  Level Estimated
09:31AM 60.3172 24.9633 37° Northeast  Level Estimated
09:32AM 60.3172 24.9633 37° Northeast  Level Estimated
09:33AM 60.3172 24.9633 37° Northeast  Level Estimated
09:34AM 60.3172 24.9633 37° Northeast  Level Estimated